• Join FlightAware (Why Join?)
  • Login
  • US Flag 
10:36AM EDT


 

Airport Tracker/Info


-or-


 

Live Flight TrackerFlight Track Log ✈ N62732 ✈ 24-Apr-2014 ✈ KHEF

Flight Track Log - Related Links

Times and Time Zones

All times are in EDT time to prevent confusion due to time zone crossing. See the N62732 flight status page for this flight to view local times or setup timezone preferences in your user account.

Time Position Orientation Groundspeed Altitude Reporting Facility
EDT Latitude Longitude Course Direction KTS MPH feet Rate Location/Type
09:06AM 38.7500 -77.5500 218° Southwest 119 137 1,200  Level Potomac TRACON
09:07AM 38.7333 -77.6000 247° West 122 140 1,600 300 Climbing Potomac TRACON
09:08AM 38.7167 -77.6333 237° Southwest 131 151 1,800 180 Climbing Potomac TRACON
09:09AM 38.7108 -77.6675 258° West 127 146 2,000 360 Climbing Washington Center
09:10AM 38.6908 -77.7106 239° Southwest 132 152 2,500 480 Climbing Washington Center
09:11AM 38.5348 -77.6819 218° Southwest  Level FlightAware Approximate
09:11AM 38.6786 -77.7522 249° West 127 146 3,000  Level Washington Center
09:12AM 38.6572 -77.8006 240° Southwest 142 163 3,000 -60 Level Washington Center
09:13AM 38.6447 -77.8456 250° West 140 161 2,900 -60 Descending Washington Center
09:14AM 38.6361 -77.8875 255° West 129 148 2,900 -60 Level Washington Center
09:15AM 38.6375 -77.9264 273° West 116 133 2,800  Descending Washington Center
09:16AM 38.6453 -77.8997 70° East 134 154 2,900  Climbing Washington Center
09:17AM 38.6342 -77.8461 105° East 129 148 2,800 -360 Descending Washington Center
09:18AM 38.6189 -77.8008 113° Southeast 134 154 2,200 -600 Descending Washington Center
09:19AM 38.6061 -77.7650 115° Southeast 127 146 1,600 -600 Descending Washington Center
09:20AM 38.5939 -77.7233 111° Southeast 122 140 1,000 60 Descending Washington Center
09:21AM 38.5636 -77.7222 178° South 118 136 1,800 600 Climbing Washington Center
09:22AM 38.5764 -77.7542 297° West 107 123 2,300 480 Climbing Washington Center
09:23AM 38.5892 -77.7886 295° West 101 116 2,900 360 Climbing Washington Center
09:24AM 38.5631 -77.8217 225° Southwest 132 152 3,100  Climbing Washington Center
09:25AM 38.5247 -77.8469 207° Southwest 141 162 3,000  Descending Washington Center
09:26AM 38.4897 -77.8650 202° Southwest 143 165 3,100 -60 Climbing Washington Center
09:27AM 38.4528 -77.8903 208° Southwest 149 171 2,900 -240 Descending Washington Center
09:28AM 38.4078 -77.9150 203° Southwest 152 175 2,700 -180 Descending Washington Center
09:29AM 38.3711 -77.9372 205° Southwest 151 174 2,600  Descending Washington Center
09:30AM 38.3383 -77.9611 210° Southwest 144 166 2,700  Climbing Washington Center
09:32AM 38.3036 -77.9833 207° Southwest 143 165 2,700  Level Washington Center
09:33AM 38.2631 -78.0100 207° Southwest 142 163 2,700 -60 Level Washington Center
09:34AM 38.2561 -78.0411 254° West 131 151 2,600 -60 Descending Washington Center
09:35AM 38.2836 -78.0228 28° Northeast 116 133 2,600  Level Washington Center
09:36AM 38.3144 -78.0006 29° Northeast 114 131 2,700  Climbing Washington Center
09:37AM 38.3408 -77.9817 29° Northeast 112 129 2,700  Level Washington Center
09:38AM 38.3722 -77.9681 19° North 112 129 2,700 -180 Level Washington Center
09:39AM 38.4000 -77.9467 31° Northeast 111 128 2,400 -360 Descending Washington Center
09:40AM 38.4233 -77.9292 30° Northeast 112 129 2,000 -300 Descending Washington Center
09:41AM 38.4519 -77.9086 29° Northeast 108 124 1,900 -300 Descending Washington Center
09:42AM 38.4786 -77.8936 24° Northeast 107 123 1,400 -540 Descending Washington Center
09:43AM 38.5069 -77.8692 34° Northeast 111 128 900 -240 Descending Washington Center
09:44AM 38.5361 -77.8536 23° Northeast 109 125 1,000 300 Climbing Washington Center
09:45AM 38.5586 -77.8572 353° North 104 120 1,600 840 Climbing Washington Center
09:46AM 38.5811 -77.8914 310° West 103 119 2,800 720 Climbing Washington Center
09:47AM 38.6008 -77.8869 10° North 106 122 3,200 360 Climbing Washington Center
09:48AM 38.5694 -77.8386 130° Southeast 153 176 3,600 180 Climbing Washington Center
09:49AM 38.5419 -77.7953 129° Southeast 155 178 3,600  Level Washington Center
09:50AM 38.5278 -77.7475 111° Southeast 156 180 3,600  Level Washington Center
09:51AM 38.5128 -77.6983 111° Southeast 151 174 3,600  Level Washington Center
09:52AM 38.4944 -77.6361 111° Southeast 151 174 3,600  Level Washington Center
09:53AM 38.4817 -77.5847 108° East 152 175 3,600  Level Washington Center
09:54AM 38.4728 -77.5333 102° East 151 174 3,600  Level Washington Center
09:55AM 38.4794 -77.4825 80° East 150 173 3,600 -60 Level Washington Center
09:56AM 38.4753 -77.4297 96° East 149 171 3,500 -120 Descending Washington Center
09:57AM 38.5017 -77.3961 45° Northeast 141 162 3,400  Descending Washington Center
09:58AM 38.5361 -77.3683 32° Northeast 138 159 3,500 -360 Climbing Washington Center
10:00AM 38.6000 -77.3667 North 134 154 2,600 -600 Descending Potomac TRACON
10:01AM 38.6167 -77.4000 303° West 118 136 2,100 -300 Descending Potomac TRACON
10:02AM 38.6333 -77.4167 322° Northwest 111 128 2,100 -240 Level Potomac TRACON
10:03AM 38.6667 -77.4500 322° Northwest 108 124 1,700 -540 Descending Potomac TRACON
10:04AM 38.6833 -77.4833 303° West 98 113 1,100 -600 Descending Potomac TRACON
10:05AM 38.7000 -77.5000 322° Northwest 92 106 500 -600 Descending Potomac TRACON